createdAt,value
2023-04-04T00:00:33.745Z,1.60
2023-04-04T00:03:00.707Z,1.90
2023-04-04T00:05:28.538Z,2.00
2023-04-04T00:07:55.272Z,2.03
2023-04-04T00:10:21.982Z,2.33
2023-04-04T00:12:48.763Z,1.80
2023-04-04T00:15:15.614Z,1.77
2023-04-04T00:17:42.390Z,1.90
2023-04-04T00:20:09.476Z,1.63
2023-04-04T00:22:36.253Z,1.70
2023-04-04T00:25:03.270Z,1.90
2023-04-04T00:27:30.004Z,1.93
2023-04-04T00:29:56.779Z,2.13
2023-04-04T00:32:23.595Z,2.00
2023-04-04T00:34:54.204Z,2.03
2023-04-04T00:37:21.727Z,1.70
2023-04-04T00:39:49.548Z,2.77
2023-04-04T00:42:16.360Z,2.47
2023-04-04T00:44:43.168Z,2.60
2023-04-04T00:47:09.871Z,2.47
2023-04-04T00:49:37.903Z,2.23
2023-04-04T00:52:07.391Z,2.50
2023-04-04T00:54:35.258Z,6.40
2023-04-04T00:57:03.204Z,3.03
2023-04-04T00:59:30.043Z,3.13
2023-04-04T01:01:57.320Z,2.03
2023-04-04T01:04:24.061Z,3.90
2023-04-04T01:06:51.058Z,3.27
2023-04-04T01:09:17.958Z,3.20
2023-04-04T01:11:44.811Z,4.10
2023-04-04T01:14:11.629Z,3.60
2023-04-04T01:16:39.102Z,6.17
2023-04-04T01:19:09.375Z,5.40
2023-04-04T01:21:36.584Z,3.70
2023-04-04T01:24:04.623Z,4.63
2023-04-04T01:26:31.889Z,4.50
2023-04-04T01:28:59.634Z,3.43
2023-04-04T01:31:50.835Z,2.43
2023-04-04T01:34:48.358Z,2.37
2023-04-04T01:37:25.390Z,1.60
2023-04-04T01:39:57.294Z,1.23
2023-04-04T01:42:24.494Z,2.37
2023-04-04T01:44:56.253Z,2.27
2023-04-04T01:47:23.839Z,1.70
2023-04-04T01:49:50.596Z,1.90
2023-04-04T01:52:17.623Z,3.20
2023-04-04T01:54:44.323Z,1.90
2023-04-04T01:57:11.086Z,2.13
2023-04-04T01:59:37.783Z,1.47
2023-04-04T02:02:04.496Z,1.43
2023-04-04T02:04:31.370Z,1.63
2023-04-04T02:06:58.623Z,2.17
2023-04-04T02:09:25.616Z,1.60
2023-04-04T02:11:52.392Z,2.13
2023-04-04T02:14:20.280Z,1.73
2023-04-04T02:16:46.964Z,2.07
2023-04-04T02:19:13.658Z,1.90
2023-04-04T02:21:40.523Z,1.70
2023-04-04T02:24:07.744Z,1.83
2023-04-04T02:26:34.495Z,1.50
2023-04-04T02:29:01.262Z,2.30
2023-04-04T02:31:28.128Z,1.93
2023-04-04T02:33:54.932Z,1.93
2023-04-04T02:36:21.736Z,2.20
2023-04-04T02:38:48.524Z,1.57
2023-04-04T02:41:15.588Z,1.63
2023-04-04T02:43:42.293Z,1.40
2023-04-04T02:46:20.553Z,2.00
2023-04-04T02:48:48.761Z,2.00
2023-04-04T02:51:15.885Z,1.90
2023-04-04T02:53:42.590Z,1.87
2023-04-04T02:56:09.383Z,1.90
2023-04-04T02:58:36.255Z,2.30
2023-04-04T03:01:03.197Z,1.60
2023-04-04T03:03:30.440Z,1.70
2023-04-04T03:05:57.409Z,1.97
2023-04-04T03:08:24.493Z,1.77
2023-04-04T03:10:51.207Z,2.80
2023-04-04T03:13:18.027Z,1.60
2023-04-04T03:15:47.371Z,1.73
2023-04-04T03:18:14.324Z,2.20
2023-04-04T03:20:41.371Z,1.87
2023-04-04T03:23:08.525Z,2.57
2023-04-04T03:25:35.232Z,4.43
2023-04-04T03:28:09.929Z,2.80
2023-04-04T03:30:36.740Z,2.17
2023-04-04T03:33:10.205Z,1.73
2023-04-04T03:35:40.279Z,2.80
2023-04-04T03:38:07.931Z,1.90
2023-04-04T03:40:34.678Z,2.27
2023-04-04T03:43:02.535Z,2.37
2023-04-04T03:45:32.892Z,2.20
2023-04-04T03:47:59.658Z,2.60
2023-04-04T03:50:26.643Z,2.33
2023-04-04T03:52:53.392Z,2.30
2023-04-04T03:55:20.120Z,2.30
2023-04-04T03:57:47.266Z,2.17
2023-04-04T04:00:14.437Z,1.97
2023-04-04T04:02:41.294Z,2.00
2023-04-04T04:05:08.323Z,2.37
2023-04-04T04:07:35.022Z,2.13
2023-04-04T04:10:02.001Z,2.03
2023-04-04T04:12:28.967Z,2.10
2023-04-04T04:14:55.723Z,1.93
2023-04-04T04:17:22.707Z,1.97
2023-04-04T04:19:49.484Z,2.80
2023-04-04T04:22:16.341Z,2.30
2023-04-04T04:24:42.970Z,2.10
2023-04-04T04:27:09.594Z,2.67
2023-04-04T04:29:36.772Z,2.47
2023-04-04T04:32:03.425Z,2.33
2023-04-04T04:34:30.008Z,1.87
2023-04-04T04:36:56.600Z,2.27
2023-04-04T04:39:23.244Z,2.30
2023-04-04T04:41:50.424Z,6.27
2023-04-04T04:44:17.066Z,5.07
2023-04-04T04:46:43.832Z,2.70
2023-04-04T04:49:10.506Z,3.07
2023-04-04T04:51:37.317Z,2.03
2023-04-04T04:54:04.110Z,2.10
2023-04-04T04:56:30.778Z,2.40
2023-04-04T04:58:57.739Z,2.27
2023-04-04T05:01:24.694Z,2.87
2023-04-04T05:03:53.351Z,2.33
2023-04-04T05:06:21.000Z,2.33
2023-04-04T05:08:47.761Z,2.67
2023-04-04T05:11:14.417Z,2.00
2023-04-04T05:13:41.147Z,2.40
2023-04-04T05:16:08.098Z,1.90
2023-04-04T05:18:34.880Z,1.90
2023-04-04T05:21:01.626Z,2.33
2023-04-04T05:23:28.338Z,2.10
2023-04-04T05:25:55.045Z,1.77
2023-04-04T05:28:21.764Z,3.10
2023-04-04T05:30:48.429Z,2.47
2023-04-04T05:33:15.167Z,2.10
2023-04-04T05:35:41.974Z,2.43
2023-04-04T05:38:08.732Z,2.27
2023-04-04T05:40:35.409Z,1.43
2023-04-04T05:43:04.414Z,2.13
2023-04-04T05:45:31.870Z,2.40
2023-04-04T05:47:58.677Z,2.00
2023-04-04T05:50:25.733Z,1.93
2023-04-04T05:52:55.213Z,2.13
2023-04-04T05:55:22.306Z,2.27
2023-04-04T05:57:52.169Z,2.20
2023-04-04T06:00:19.840Z,1.73
2023-04-04T06:02:47.017Z,2.27
2023-04-04T06:05:14.268Z,2.20
2023-04-04T06:07:41.306Z,2.23
2023-04-04T06:10:08.807Z,1.90
2023-04-04T06:12:35.615Z,2.60
2023-04-04T06:15:02.414Z,2.30
2023-04-04T06:17:29.198Z,2.00
2023-04-04T06:19:56.055Z,2.00
2023-04-04T06:22:23.075Z,2.30
2023-04-04T06:24:49.865Z,1.70
2023-04-04T06:27:16.557Z,2.00
2023-04-04T06:29:43.996Z,1.40
2023-04-04T06:32:11.286Z,1.80
2023-04-04T06:34:38.568Z,2.90
2023-04-04T06:37:05.374Z,1.90
2023-04-04T06:39:34.412Z,2.00
2023-04-04T06:42:01.572Z,2.23
2023-04-04T06:44:28.303Z,1.83
2023-04-04T06:46:55.188Z,2.77
2023-04-04T06:49:22.249Z,1.93
2023-04-04T06:51:50.959Z,2.13
2023-04-04T06:54:17.802Z,1.57
2023-04-04T06:56:44.475Z,2.43
2023-04-04T06:59:12.456Z,2.50
2023-04-04T07:01:39.172Z,1.70
2023-04-04T07:04:06.131Z,2.37
2023-04-04T07:06:32.962Z,2.50
2023-04-04T07:09:00.227Z,2.07
2023-04-04T07:11:27.361Z,3.30
2023-04-04T07:13:54.283Z,3.13
2023-04-04T07:16:21.282Z,2.17
2023-04-04T07:18:48.077Z,18.07
2023-04-04T07:21:14.999Z,29.30
2023-04-04T07:23:41.861Z,9.33
2023-04-04T07:26:08.706Z,1.80
2023-04-04T07:28:35.405Z,2.33
2023-04-04T07:31:02.324Z,1.93
2023-04-04T07:33:29.289Z,2.63
2023-04-04T07:35:56.066Z,2.63
2023-04-04T07:38:22.948Z,2.70
2023-04-04T07:40:50.425Z,2.07
2023-04-04T07:43:18.258Z,2.17
2023-04-04T07:45:44.993Z,2.30
2023-04-04T07:48:11.895Z,3.03
2023-04-04T07:50:38.947Z,2.23
2023-04-04T07:53:05.801Z,3.20
2023-04-04T07:55:32.550Z,3.03
2023-04-04T07:57:59.366Z,3.83
2023-04-04T08:00:26.708Z,3.90
2023-04-04T08:02:55.177Z,2.63
2023-04-04T08:05:22.121Z,1.77
2023-04-04T08:07:48.901Z,2.33
2023-04-04T08:10:17.915Z,2.30
2023-04-04T08:12:48.566Z,3.43
2023-04-04T08:15:15.642Z,2.50
2023-04-04T08:17:43.782Z,2.57
2023-04-04T08:20:11.398Z,2.40
2023-04-04T08:22:39.577Z,2.47
2023-04-04T08:25:06.556Z,2.90
2023-04-04T08:27:33.357Z,3.40
2023-04-04T08:30:00.611Z,2.70
2023-04-04T08:32:27.373Z,3.00
2023-04-04T08:34:54.597Z,2.73
2023-04-04T08:37:21.775Z,2.70
2023-04-04T08:39:48.711Z,3.20
2023-04-04T08:42:17.136Z,3.30
2023-04-04T08:44:45.544Z,2.70
2023-04-04T08:47:13.566Z,2.97
2023-04-04T08:49:44.174Z,3.13
2023-04-04T08:52:15.931Z,2.60
2023-04-04T08:54:43.763Z,3.70
2023-04-04T08:57:10.515Z,3.80
2023-04-04T08:59:37.367Z,3.13
2023-04-04T09:02:34.816Z,2.50
2023-04-04T09:05:06.644Z,2.87
2023-04-04T09:07:35.252Z,2.43
2023-04-04T09:10:04.264Z,3.70
2023-04-04T09:12:32.726Z,5.00
2023-04-04T09:15:00.688Z,4.33
2023-04-04T09:17:27.679Z,4.23
2023-04-04T09:19:54.464Z,3.43
2023-04-04T09:22:21.242Z,2.17
2023-04-04T09:24:48.675Z,3.43
2023-04-04T09:27:16.581Z,2.10
2023-04-04T09:29:43.220Z,2.77
2023-04-04T09:32:16.648Z,3.23
2023-04-04T09:34:44.223Z,2.03
2023-04-04T09:37:14.355Z,2.70
2023-04-04T09:39:42.151Z,2.30
2023-04-04T09:42:09.277Z,2.60
2023-04-04T09:44:37.060Z,1.67
2023-04-04T09:47:31.950Z,1.70
2023-04-04T09:50:03.972Z,2.60
2023-04-04T09:52:35.946Z,3.70
2023-04-04T09:55:04.716Z,2.90
2023-04-04T09:57:36.135Z,2.50
2023-04-04T10:00:06.173Z,3.47
2023-04-04T10:02:33.649Z,2.70
2023-04-04T10:05:05.893Z,1.67
2023-04-04T10:07:33.884Z,1.60
2023-04-04T10:10:08.209Z,2.67
2023-04-04T10:12:36.992Z,1.83
2023-04-04T10:15:04.300Z,1.90
2023-04-04T10:17:42.205Z,2.00
2023-04-04T10:20:10.137Z,2.27
2023-04-04T10:22:38.134Z,2.40
2023-04-04T10:25:06.053Z,2.40
2023-04-04T10:27:33.883Z,2.70
2023-04-04T10:30:01.272Z,1.83
2023-04-04T10:32:51.737Z,2.20
2023-04-04T10:35:19.757Z,2.27
2023-04-04T10:37:54.876Z,1.80
2023-04-04T10:40:22.341Z,2.23
2023-04-04T10:42:50.180Z,1.83
2023-04-04T10:45:21.734Z,2.40
2023-04-04T10:47:48.951Z,5.27
2023-04-04T10:50:15.917Z,2.57
2023-04-04T10:52:44.744Z,2.60
2023-04-04T10:55:13.742Z,1.97
2023-04-04T10:57:46.393Z,2.27
2023-04-04T11:00:17.875Z,1.83
2023-04-04T11:03:02.284Z,2.00
2023-04-04T11:05:34.701Z,1.97
2023-04-04T11:08:09.136Z,2.17
2023-04-04T11:10:47.463Z,1.73
2023-04-04T11:13:18.398Z,1.73
2023-04-04T11:16:00.063Z,2.93
2023-04-04T11:18:34.224Z,1.60
2023-04-04T11:21:05.955Z,2.10
2023-04-04T11:23:58.798Z,2.10
2023-04-04T11:26:28.540Z,2.37
2023-04-04T11:29:02.271Z,2.23
2023-04-04T11:31:29.929Z,2.43
2023-04-04T11:34:12.805Z,1.93
2023-04-04T11:36:40.285Z,2.10
2023-04-04T11:39:14.959Z,3.10
2023-04-04T11:41:54.005Z,1.80
2023-04-04T11:44:22.705Z,2.13
2023-04-04T11:46:52.113Z,1.30
2023-04-04T11:49:18.943Z,2.13
2023-04-04T11:51:46.058Z,2.33
2023-04-04T11:54:18.751Z,2.93
2023-04-04T11:56:45.946Z,1.60
2023-04-04T11:59:14.183Z,2.03
2023-04-04T12:01:41.385Z,3.10
2023-04-04T12:04:09.520Z,2.17
2023-04-04T12:06:37.353Z,2.00
2023-04-04T12:09:05.237Z,1.80
2023-04-04T12:11:34.216Z,1.97
2023-04-04T12:14:01.561Z,1.80
2023-04-04T12:16:29.196Z,1.37
2023-04-04T12:19:02.167Z,2.00
2023-04-04T12:21:31.760Z,2.00
2023-04-04T12:23:58.637Z,2.50
2023-04-04T12:26:29.870Z,2.03
2023-04-04T12:28:58.332Z,1.93
2023-04-04T12:31:28.721Z,3.10
2023-04-04T12:33:55.566Z,1.53
2023-04-04T12:36:25.710Z,1.83
2023-04-04T12:39:06.322Z,1.83
2023-04-04T12:41:34.124Z,1.93
2023-04-04T12:44:05.042Z,1.80
2023-04-04T12:46:41.678Z,3.50
2023-04-04T12:49:11.315Z,8.57
2023-04-04T12:51:38.870Z,2.87
2023-04-04T12:54:09.299Z,2.67
2023-04-04T12:56:37.224Z,2.70
2023-04-04T12:59:05.148Z,2.30
2023-04-04T13:01:33.087Z,2.93
2023-04-04T13:04:06.684Z,2.33
2023-04-04T13:06:33.676Z,2.80
2023-04-04T13:09:01.360Z,2.20
2023-04-04T13:11:59.281Z,1.90
2023-04-04T13:14:27.169Z,1.87
2023-04-04T13:17:08.082Z,1.37
2023-04-04T13:19:35.252Z,1.90
2023-04-04T13:22:03.299Z,2.40
2023-04-04T13:24:31.345Z,1.97
2023-04-04T13:26:58.195Z,1.90
2023-04-04T13:29:25.630Z,3.03
2023-04-04T13:31:53.369Z,2.33
2023-04-04T13:34:26.992Z,2.50
2023-04-04T13:36:54.213Z,2.70
2023-04-04T13:39:21.101Z,2.47
2023-04-04T13:41:47.841Z,1.77
2023-04-04T13:44:16.638Z,2.30
2023-04-04T13:46:43.663Z,1.63
2023-04-04T13:49:11.213Z,1.47
2023-04-04T13:51:38.310Z,3.20
2023-04-04T13:54:05.261Z,2.53
2023-04-04T13:56:32.012Z,2.90
2023-04-04T13:58:58.755Z,2.13
2023-04-04T14:01:25.694Z,2.10
2023-04-04T14:03:52.629Z,2.37
2023-04-04T14:06:19.516Z,2.33
2023-04-04T14:08:47.453Z,2.07
2023-04-04T14:11:16.107Z,1.30
2023-04-04T14:13:42.804Z,2.07
2023-04-04T14:16:09.607Z,2.13
2023-04-04T14:18:36.607Z,2.50
2023-04-04T14:21:04.346Z,2.10
2023-04-04T14:23:31.194Z,2.33
2023-04-04T14:25:58.384Z,1.90
2023-04-04T14:28:25.412Z,2.37
2023-04-04T14:30:52.173Z,1.90
2023-04-04T14:33:18.895Z,1.97
2023-04-04T14:35:45.841Z,1.77
2023-04-04T14:38:12.589Z,2.10
2023-04-04T14:40:39.343Z,2.43
2023-04-04T14:43:06.106Z,2.50
2023-04-04T14:45:33.302Z,3.13
2023-04-04T14:48:00.106Z,2.20
2023-04-04T14:50:26.962Z,2.10
2023-04-04T14:52:56.476Z,3.00
2023-04-04T14:55:23.710Z,2.37
2023-04-04T14:58:01.948Z,3.50
2023-04-04T15:00:29.916Z,1.83
2023-04-04T15:02:56.836Z,3.57
2023-04-04T15:05:24.943Z,2.80
2023-04-04T15:07:51.644Z,2.50
2023-04-04T15:10:18.616Z,2.60
2023-04-04T15:12:45.373Z,2.50
2023-04-04T15:15:13.417Z,2.23
2023-04-04T15:17:41.244Z,2.63
2023-04-04T15:20:08.742Z,3.10
2023-04-04T15:22:36.288Z,2.67
2023-04-04T15:25:03.213Z,2.10
2023-04-04T15:27:29.900Z,2.30
2023-04-04T15:29:56.594Z,3.83
2023-04-04T15:32:23.400Z,2.83
2023-04-04T15:34:50.221Z,2.63
2023-04-04T15:37:17.071Z,3.10
2023-04-04T15:39:53.022Z,2.67
2023-04-04T15:42:21.216Z,2.40
2023-04-04T15:44:48.086Z,1.93
2023-04-04T15:47:16.478Z,2.50
2023-04-04T15:49:43.232Z,2.40
2023-04-04T15:52:10.017Z,4.30
2023-04-04T15:54:36.725Z,2.73
2023-04-04T15:57:03.552Z,2.40
2023-04-04T15:59:32.029Z,2.97
2023-04-04T16:01:59.081Z,2.37
2023-04-04T16:04:26.039Z,2.90
2023-04-04T16:06:52.790Z,3.23
2023-04-04T16:09:21.495Z,2.60
2023-04-04T16:11:48.638Z,3.07
2023-04-04T16:14:15.443Z,2.57
2023-04-04T16:16:42.398Z,1.90
2023-04-04T16:19:09.157Z,2.50
2023-04-04T16:21:36.203Z,2.57
2023-04-04T16:24:05.337Z,2.40
2023-04-04T16:26:32.177Z,2.43
2023-04-04T16:28:58.976Z,2.53
2023-04-04T16:31:25.882Z,2.17
2023-04-04T16:33:52.634Z,1.80
2023-04-04T16:36:19.429Z,2.63
2023-04-04T16:38:46.173Z,2.70
2023-04-04T16:41:13.071Z,2.50
2023-04-04T16:43:39.814Z,2.67
2023-04-04T16:46:06.562Z,2.63
2023-04-04T16:48:33.244Z,3.07
2023-04-04T16:51:00.036Z,2.70
2023-04-04T16:53:26.812Z,2.40
2023-04-04T16:55:53.608Z,2.30
2023-04-04T16:58:20.407Z,3.70
2023-04-04T17:00:47.216Z,3.20
2023-04-04T17:03:13.974Z,2.87
2023-04-04T17:05:40.702Z,2.20
2023-04-04T17:08:07.423Z,2.50
2023-04-04T17:10:34.446Z,3.40
2023-04-04T17:13:02.111Z,2.10
2023-04-04T17:15:28.920Z,2.27
2023-04-04T17:17:55.660Z,2.00
2023-04-04T17:20:22.439Z,2.37
2023-04-04T17:22:51.588Z,2.90
2023-04-04T17:25:18.644Z,3.07
2023-04-04T17:27:45.445Z,1.97
2023-04-04T17:30:12.830Z,3.00
2023-04-04T17:32:39.760Z,3.93
2023-04-04T17:35:07.079Z,3.00
2023-04-04T17:37:33.783Z,3.73
2023-04-04T17:40:03.873Z,3.60
2023-04-04T17:42:30.798Z,3.33
2023-04-04T17:44:57.662Z,2.50
2023-04-04T17:47:24.473Z,2.00
2023-04-04T17:49:54.483Z,2.47
2023-04-04T17:52:21.225Z,2.40
2023-04-04T17:54:48.813Z,1.90
2023-04-04T17:57:15.705Z,2.97
2023-04-04T17:59:42.756Z,2.67
2023-04-04T18:02:09.580Z,2.33
2023-04-04T18:04:37.987Z,1.83
2023-04-04T18:07:06.866Z,3.57
2023-04-04T18:09:33.583Z,5.23
2023-04-04T18:12:01.022Z,5.77
2023-04-04T18:14:27.814Z,4.30
2023-04-04T18:16:54.715Z,9.27
2023-04-04T18:19:21.444Z,14.13
2023-04-04T18:21:50.196Z,12.40
2023-04-04T18:24:17.291Z,22.57
2023-04-04T18:26:45.144Z,12.53
2023-04-04T18:29:14.344Z,5.73
2023-04-04T18:31:41.191Z,2.60
2023-04-04T18:34:08.000Z,4.60
2023-04-04T18:36:36.561Z,3.27
2023-04-04T18:39:03.773Z,2.90
2023-04-04T18:41:30.767Z,6.17
2023-04-04T18:43:57.609Z,15.60
2023-04-04T18:46:24.580Z,8.00
2023-04-04T18:48:51.680Z,3.80
2023-04-04T18:51:18.545Z,4.60
2023-04-04T18:53:45.392Z,5.37
2023-04-04T18:56:12.134Z,3.27
2023-04-04T18:58:38.894Z,4.57
2023-04-04T19:01:06.541Z,3.50
2023-04-04T19:03:41.641Z,8.77
2023-04-04T19:06:11.296Z,4.77
2023-04-04T19:08:42.551Z,4.80
2023-04-04T19:11:09.967Z,4.53
2023-04-04T19:13:37.262Z,5.57
2023-04-04T19:16:04.729Z,3.90
2023-04-04T19:18:31.457Z,5.17
2023-04-04T19:20:58.858Z,5.20
2023-04-04T19:23:25.748Z,4.10
2023-04-04T19:25:52.546Z,4.77
2023-04-04T19:28:19.206Z,3.63
2023-04-04T19:30:47.655Z,3.57
2023-04-04T19:33:18.104Z,3.70
2023-04-04T19:35:50.947Z,6.93
2023-04-04T19:38:30.670Z,5.67
2023-04-04T19:41:28.091Z,8.87
2023-04-04T19:43:54.673Z,5.87
2023-04-04T19:46:28.317Z,4.43
2023-04-04T19:48:56.277Z,4.33
2023-04-04T19:51:22.834Z,4.60
2023-04-04T19:53:51.250Z,3.83
2023-04-04T19:56:19.234Z,3.67
2023-04-04T19:58:48.417Z,6.40
2023-04-04T20:01:20.936Z,3.83
2023-04-04T20:03:48.277Z,2.90
2023-04-04T20:06:31.756Z,2.20
2023-04-04T20:09:00.495Z,2.17
2023-04-04T20:11:31.948Z,2.60
2023-04-04T20:14:00.575Z,4.47
2023-04-04T20:16:28.132Z,3.87
2023-04-04T20:18:54.874Z,2.00
2023-04-04T20:21:24.233Z,3.00
2023-04-04T20:23:53.394Z,4.70
2023-04-04T20:26:38.314Z,4.20
2023-04-04T20:29:07.424Z,3.00
2023-04-04T20:31:54.740Z,3.30
2023-04-04T20:34:33.721Z,3.47
2023-04-04T20:37:01.652Z,4.90
2023-04-04T20:39:37.772Z,4.60
2023-04-04T20:42:27.962Z,3.53
2023-04-04T20:44:55.958Z,3.63
2023-04-04T20:47:53.555Z,2.90
2023-04-04T20:50:23.231Z,2.60
2023-04-04T20:52:55.530Z,2.43
2023-04-04T20:55:25.392Z,2.20
2023-04-04T20:57:53.776Z,3.07
2023-04-04T21:00:23.365Z,4.33
2023-04-04T21:02:50.182Z,4.17
2023-04-04T21:05:31.488Z,2.83
2023-04-04T21:07:59.155Z,3.47
2023-04-04T21:10:28.966Z,3.23
2023-04-04T21:13:01.047Z,3.03
2023-04-04T21:15:33.601Z,2.27
2023-04-04T21:18:02.503Z,2.00
2023-04-04T21:20:47.380Z,1.93
2023-04-04T21:23:28.874Z,3.00
2023-04-04T21:25:57.599Z,3.07
2023-04-04T21:28:30.744Z,3.87
2023-04-04T21:30:57.577Z,3.60
2023-04-04T21:33:24.255Z,2.87
2023-04-04T21:35:53.179Z,2.80
2023-04-04T21:38:34.075Z,2.70
2023-04-04T21:41:27.805Z,2.90
2023-04-04T21:43:56.308Z,2.87
2023-04-04T21:46:26.892Z,2.10
2023-04-04T21:48:54.487Z,3.33
2023-04-04T21:51:21.451Z,4.10
2023-04-04T21:53:49.170Z,4.30
2023-04-04T21:56:16.615Z,3.50
2023-04-04T21:58:43.178Z,3.40
2023-04-04T22:01:09.794Z,2.77
2023-04-04T22:03:39.473Z,2.30
2023-04-04T22:06:06.703Z,2.40
2023-04-04T22:08:33.313Z,3.07
2023-04-04T22:11:02.076Z,2.70
2023-04-04T22:13:35.470Z,2.60
2023-04-04T22:16:06.488Z,2.83
2023-04-04T22:18:35.643Z,2.60
2023-04-04T22:21:05.276Z,2.37
2023-04-04T22:23:38.127Z,2.10
2023-04-04T22:26:09.387Z,2.07
2023-04-04T22:28:37.631Z,2.63
2023-04-04T22:31:05.702Z,2.57
2023-04-04T22:33:34.047Z,2.07
2023-04-04T22:36:01.763Z,2.43
2023-04-04T22:38:29.204Z,2.67
2023-04-04T22:40:57.169Z,1.80
2023-04-04T22:43:25.625Z,1.90
2023-04-04T22:45:52.654Z,2.10
2023-04-04T22:48:23.061Z,1.70
2023-04-04T22:50:56.099Z,2.10
2023-04-04T22:53:26.041Z,2.10
2023-04-04T22:55:53.879Z,2.03
2023-04-04T22:58:21.690Z,2.00
2023-04-04T23:00:48.633Z,2.40
2023-04-04T23:03:15.952Z,1.73
2023-04-04T23:05:43.119Z,1.53
2023-04-04T23:08:09.963Z,1.67
2023-04-04T23:10:36.980Z,1.80
2023-04-04T23:13:04.025Z,2.37
2023-04-04T23:15:33.192Z,2.07
2023-04-04T23:18:00.000Z,1.90
2023-04-04T23:20:28.058Z,2.40
2023-04-04T23:22:54.928Z,1.90
2023-04-04T23:25:21.557Z,2.50
2023-04-04T23:27:48.317Z,2.37
2023-04-04T23:30:15.478Z,2.37
2023-04-04T23:32:42.349Z,2.57
2023-04-04T23:35:09.664Z,2.07
2023-04-04T23:37:36.765Z,2.70
2023-04-04T23:40:04.962Z,2.50
2023-04-04T23:42:31.681Z,1.60
2023-04-04T23:45:00.990Z,1.93
2023-04-04T23:47:28.005Z,2.63
2023-04-04T23:49:55.714Z,2.40
2023-04-04T23:52:22.377Z,2.43
2023-04-04T23:54:49.072Z,2.13
2023-04-04T23:57:15.982Z,2.10
2023-04-04T23:59:42.783Z,1.70
